Aviation Digital Data Service (ADDS)

Output produced by METARs form (1033 UTC 17 June 2019)
found at http://www.aviationweather.gov/metar/data/
 
Forecast for: VDSR (SIEMREAP , KH)
Text: TAF VDSR 170500Z 1706/1724 24010KT 9999 SCT017 SCT040
Forecast period: 0600 UTC 17 June 2019 to 0000 UTC 18 June 2019
Forecast type: FROM: standard forecast or significant change
Winds: from the WSW (240 degrees) at 12 MPH (10 knots; 5.1 m/s)
Visibility: 6 or more miles 10+ km)
Ceiling: at least 12,000 feet AGL
Clouds: scattered clouds at 1700 feet AGL
scattered clouds at 4000 feet AGL
Weather: no significant weather forecast for this period
Text: TEMPO 1707/1712 5000 SHRA SCT015 FEW017CB SCT040
Forecast period: 0700 to 1200 UTC 17 June 2019
Forecast type: TEMPORARY: The following changes expected for less than half the time period
Visibility: 3 miles (5 km)
Ceiling: at least 12,000 feet AGL
Clouds: scattered clouds at 1500 feet AGL
few clouds at 1700 feet AGL
scattered clouds at 4000 feet AGL
Weather: SHRA  (rain showers)